createdAt,value
2023-03-04T00:00:11.212Z,82.03
2023-03-04T00:02:45.020Z,81.73
2023-03-04T00:05:16.290Z,81.82
2023-03-04T00:09:58.817Z,81.92
2023-03-04T00:12:27.720Z,82.16
2023-03-04T00:14:54.458Z,82.15
2023-03-04T00:17:28.468Z,81.91
2023-03-04T00:20:00.447Z,81.74
2023-03-04T00:22:29.016Z,81.96
2023-03-04T00:24:59.653Z,82.01
2023-03-04T00:27:27.201Z,82.00
2023-03-04T00:29:53.938Z,81.78
2023-03-04T00:32:21.265Z,81.77
2023-03-04T00:34:51.413Z,81.88
2023-03-04T00:37:20.026Z,81.87
2023-03-04T00:39:48.998Z,81.76
2023-03-04T00:42:16.844Z,81.65
2023-03-04T00:44:43.723Z,81.73
2023-03-04T00:47:10.681Z,81.94
2023-03-04T00:49:39.256Z,82.06
2023-03-04T00:52:07.375Z,81.91
2023-03-04T00:54:42.460Z,81.74
2023-03-04T00:57:09.472Z,81.80
2023-03-04T00:59:36.416Z,81.98
2023-03-04T01:02:03.353Z,82.03
2023-03-04T01:04:32.975Z,82.23
2023-03-04T01:07:00.785Z,82.09
2023-03-04T01:09:29.122Z,81.86
2023-03-04T01:11:56.459Z,82.01
2023-03-04T01:14:23.645Z,82.02
2023-03-04T01:16:50.871Z,82.35
2023-03-04T01:19:21.162Z,82.19
2023-03-04T01:21:49.358Z,82.31
2023-03-04T01:24:19.944Z,81.97
2023-03-04T01:26:47.630Z,82.09
2023-03-04T01:29:21.027Z,82.28
2023-03-04T01:31:52.220Z,82.30
2023-03-04T01:34:25.981Z,82.29
2023-03-04T01:36:52.977Z,82.20
2023-03-04T01:39:19.725Z,81.94
2023-03-04T01:41:46.986Z,82.10
2023-03-04T01:44:14.363Z,82.44
2023-03-04T01:46:48.238Z,82.57
2023-03-04T01:49:16.537Z,82.60
2023-03-04T01:51:46.292Z,82.62
2023-03-04T01:54:13.833Z,83.11
2023-03-04T01:56:43.065Z,83.52
2023-03-04T01:59:16.723Z,83.94
2023-03-04T02:02:04.615Z,83.92
2023-03-04T02:04:33.700Z,84.09
2023-03-04T02:07:01.689Z,84.56
2023-03-04T02:09:29.677Z,84.91
2023-03-04T02:11:56.400Z,85.13
2023-03-04T02:14:24.842Z,85.43
2023-03-04T02:16:55.855Z,85.80
2023-03-04T02:19:27.515Z,86.30
2023-03-04T02:21:54.446Z,86.48
2023-03-04T02:24:32.525Z,86.66
2023-03-04T02:26:59.753Z,86.79
2023-03-04T02:29:26.594Z,87.17
2023-03-04T02:31:53.487Z,87.31
2023-03-04T02:34:25.516Z,87.27
2023-03-04T02:36:54.397Z,87.38
2023-03-04T02:39:25.251Z,87.55
2023-03-04T02:41:53.036Z,87.78
2023-03-04T02:44:23.939Z,87.53
2023-03-04T02:46:51.471Z,87.76
2023-03-04T02:49:19.104Z,87.71
2023-03-04T02:51:46.868Z,87.90
2023-03-04T02:54:22.016Z,87.67
2023-03-04T02:56:50.863Z,87.44
2023-03-04T02:59:18.189Z,87.58
2023-03-04T03:01:50.052Z,87.62
2023-03-04T03:04:17.917Z,87.69
2023-03-04T03:06:45.185Z,87.49
2023-03-04T03:09:16.594Z,87.42
2023-03-04T03:11:46.774Z,87.57
2023-03-04T03:14:15.256Z,87.88
2023-03-04T03:16:42.844Z,87.85
2023-03-04T03:19:11.700Z,87.76
2023-03-04T03:21:39.084Z,87.84
2023-03-04T03:24:05.983Z,88.00
2023-03-04T03:26:33.894Z,87.71
2023-03-04T03:29:00.586Z,87.69
2023-03-04T03:31:28.824Z,87.61
2023-03-04T03:33:58.801Z,87.69
2023-03-04T03:36:27.367Z,87.68
2023-03-04T03:38:54.533Z,87.41
2023-03-04T03:41:21.318Z,87.65
2023-03-04T03:43:48.596Z,87.62
2023-03-04T03:46:15.349Z,87.67
2023-03-04T03:48:43.118Z,87.54
2023-03-04T03:51:10.780Z,87.47
2023-03-04T03:53:37.820Z,87.70
2023-03-04T03:56:05.385Z,87.62
2023-03-04T03:58:33.343Z,87.43
2023-03-04T04:01:00.377Z,87.44
2023-03-04T04:03:27.120Z,87.28
2023-03-04T04:05:53.871Z,87.26
2023-03-04T04:08:24.810Z,87.02
2023-03-04T04:10:52.617Z,87.10
2023-03-04T04:13:19.461Z,87.12
2023-03-04T04:15:53.438Z,87.09
2023-03-04T04:18:23.352Z,86.72
2023-03-04T04:20:51.483Z,86.34
2023-03-04T04:23:18.434Z,86.28
2023-03-04T04:25:45.224Z,86.42
2023-03-04T04:28:14.401Z,86.10
2023-03-04T04:30:41.463Z,86.40
2023-03-04T04:33:13.293Z,86.27
2023-03-04T04:35:40.819Z,86.22
2023-03-04T04:38:08.497Z,86.59
2023-03-04T04:40:36.700Z,86.81
2023-03-04T04:43:04.283Z,86.68
2023-03-04T04:45:33.880Z,86.83
2023-03-04T04:48:00.910Z,87.15
2023-03-04T04:50:32.954Z,86.80
2023-03-04T04:53:00.451Z,86.88
2023-03-04T04:55:27.834Z,87.03
2023-03-04T04:57:55.256Z,86.83
2023-03-04T05:00:22.656Z,86.70
2023-03-04T05:02:51.009Z,86.63
2023-03-04T05:05:18.154Z,86.64
2023-03-04T05:07:51.811Z,86.48
2023-03-04T05:10:20.762Z,86.13
2023-03-04T05:12:47.771Z,86.02
2023-03-04T05:15:15.068Z,85.95
2023-03-04T05:17:41.791Z,85.53
2023-03-04T05:20:10.479Z,85.51
2023-03-04T05:22:37.293Z,85.37
2023-03-04T05:25:05.030Z,85.17
2023-03-04T05:27:32.481Z,84.83
2023-03-04T05:29:59.565Z,84.44
2023-03-04T05:32:28.246Z,84.35
2023-03-04T05:34:55.203Z,84.23
2023-03-04T05:37:22.568Z,83.81
2023-03-04T05:39:49.902Z,83.35
2023-03-04T05:42:16.827Z,83.15
2023-03-04T05:44:44.310Z,82.75
2023-03-04T05:47:11.357Z,82.29
2023-03-04T05:49:40.551Z,81.91
2023-03-04T05:52:10.535Z,81.96
2023-03-04T05:54:37.422Z,81.53
2023-03-04T05:57:04.209Z,81.16
2023-03-04T05:59:31.092Z,81.06
2023-03-04T06:01:58.475Z,80.93
2023-03-04T06:04:25.294Z,80.53
2023-03-04T06:06:53.498Z,80.17
2023-03-04T06:09:21.355Z,80.47
2023-03-04T06:11:47.949Z,80.44
2023-03-04T06:14:14.844Z,80.14
2023-03-04T06:16:42.880Z,80.00
2023-03-04T06:19:09.827Z,80.28
2023-03-04T06:21:42.074Z,80.26
2023-03-04T06:24:08.894Z,79.70
2023-03-04T06:26:35.951Z,79.83
2023-03-04T06:29:04.266Z,79.89
2023-03-04T06:31:31.692Z,79.49
2023-03-04T06:33:58.572Z,79.56
2023-03-04T06:36:25.257Z,79.71
2023-03-04T06:38:52.043Z,79.58
2023-03-04T06:41:19.928Z,79.29
2023-03-04T06:43:53.716Z,79.15
2023-03-04T06:46:30.067Z,79.22
2023-03-04T06:48:57.592Z,78.99
2023-03-04T06:51:26.556Z,78.46
2023-03-04T06:54:06.460Z,78.20
2023-03-04T06:56:37.590Z,78.33
2023-03-04T06:59:04.678Z,78.36
2023-03-04T07:01:32.856Z,77.85
2023-03-04T07:04:09.865Z,77.91
2023-03-04T07:06:37.694Z,78.14
2023-03-04T07:09:07.999Z,77.97
2023-03-04T07:11:39.730Z,77.86
2023-03-04T07:14:14.888Z,77.87
2023-03-04T07:16:53.214Z,77.87
2023-03-04T07:19:22.441Z,77.42
2023-03-04T07:21:59.308Z,77.42
2023-03-04T07:24:27.146Z,77.59
2023-03-04T07:26:54.613Z,77.51
2023-03-04T07:29:34.674Z,77.03
2023-03-04T07:32:08.637Z,76.95
2023-03-04T07:34:36.566Z,77.03
2023-03-04T07:37:06.494Z,76.81
2023-03-04T07:39:36.118Z,76.25
2023-03-04T07:42:04.085Z,76.18
2023-03-04T07:44:31.199Z,76.13
2023-03-04T07:46:57.980Z,75.99
2023-03-04T07:49:25.095Z,75.66
2023-03-04T07:51:52.136Z,75.35
2023-03-04T07:54:19.738Z,74.91
2023-03-04T07:56:48.603Z,74.29
2023-03-04T07:59:17.121Z,74.23
2023-03-04T08:01:45.652Z,73.98
2023-03-04T08:04:13.853Z,74.13
2023-03-04T08:06:41.284Z,73.20
2023-03-04T08:09:09.655Z,72.71
2023-03-04T08:11:37.539Z,72.87
2023-03-04T08:14:04.892Z,72.78
2023-03-04T08:16:34.804Z,72.88
2023-03-04T08:19:03.019Z,72.51
2023-03-04T08:21:29.750Z,71.90
2023-03-04T08:24:01.800Z,71.62
2023-03-04T08:26:40.362Z,71.09
2023-03-04T08:29:10.211Z,70.32
2023-03-04T08:31:40.227Z,70.37
2023-03-04T08:34:09.979Z,69.92
2023-03-04T08:36:36.880Z,69.34
2023-03-04T08:39:05.328Z,69.61
2023-03-04T08:41:34.116Z,69.74
2023-03-04T08:44:02.543Z,70.14
2023-03-04T08:46:29.759Z,70.48
2023-03-04T08:49:00.234Z,70.85
2023-03-04T08:51:27.869Z,70.79
2023-03-04T08:53:54.930Z,70.76
2023-03-04T08:56:21.739Z,70.94
2023-03-04T08:58:48.731Z,71.11
2023-03-04T09:01:15.542Z,71.10
2023-03-04T09:03:45.580Z,71.43
2023-03-04T09:06:16.265Z,71.45
2023-03-04T09:08:47.970Z,71.05
2023-03-04T09:11:16.965Z,70.92
2023-03-04T09:13:45.651Z,71.03
2023-03-04T09:16:14.247Z,70.67
2023-03-04T09:18:41.215Z,70.26
2023-03-04T09:21:11.615Z,69.91
2023-03-04T09:23:39.882Z,69.93
2023-03-04T09:26:21.377Z,69.63
2023-03-04T09:28:52.503Z,68.30
2023-03-04T09:31:19.410Z,67.82
2023-03-04T09:33:48.768Z,67.15
2023-03-04T09:36:16.807Z,66.88
2023-03-04T09:38:52.302Z,66.22
2023-03-04T09:41:23.502Z,65.62
2023-03-04T09:43:50.496Z,65.49
2023-03-04T09:46:38.073Z,65.40
2023-03-04T09:49:07.308Z,65.21
2023-03-04T09:51:47.902Z,64.98
2023-03-04T09:54:21.860Z,65.04
2023-03-04T09:56:57.131Z,65.27
2023-03-04T10:00:06.565Z,65.28
2023-03-04T10:03:05.665Z,65.31
2023-03-04T10:05:34.430Z,65.27
2023-03-04T10:08:28.849Z,65.03
2023-03-04T10:11:01.964Z,64.77
2023-03-04T10:13:59.019Z,63.98
2023-03-04T10:16:39.968Z,63.57
2023-03-04T10:19:18.436Z,63.23
2023-03-04T10:21:54.987Z,63.85
2023-03-04T10:24:27.173Z,63.93
2023-03-04T10:26:58.143Z,64.24
2023-03-04T10:29:26.422Z,64.57
2023-03-04T10:32:00.595Z,64.59
2023-03-04T10:34:36.265Z,64.81
2023-03-04T10:37:09.265Z,64.95
2023-03-04T10:39:47.538Z,64.91
2023-03-04T10:42:15.022Z,65.22
2023-03-04T10:45:03.792Z,65.42
2023-03-04T10:47:32.269Z,65.50
2023-03-04T10:50:01.800Z,65.16
2023-03-04T10:52:46.836Z,64.78
2023-03-04T10:55:41.693Z,64.96
2023-03-04T10:58:19.457Z,64.14
2023-03-04T11:01:04.966Z,62.40
2023-03-04T11:03:36.475Z,60.95
2023-03-04T11:06:30.438Z,59.69
2023-03-04T11:09:00.477Z,58.84
2023-03-04T11:11:41.840Z,57.52
2023-03-04T11:14:35.138Z,57.03
2023-03-04T11:17:40.146Z,57.26
2023-03-04T11:20:28.686Z,57.31
2023-03-04T11:22:57.810Z,57.50
2023-03-04T11:25:28.229Z,57.71
2023-03-04T11:28:04.305Z,57.90
2023-03-04T11:30:38.196Z,58.04
2023-03-04T11:33:20.609Z,58.28
2023-03-04T11:35:51.189Z,58.61
2023-03-04T11:38:28.958Z,58.50
2023-03-04T11:41:20.477Z,58.92
2023-03-04T11:43:49.083Z,59.93
2023-03-04T11:46:52.579Z,60.59
2023-03-04T11:49:32.420Z,61.25
2023-03-04T11:52:12.420Z,61.72
2023-03-04T11:55:02.732Z,62.19
2023-03-04T11:57:57.863Z,62.49
2023-03-04T12:00:45.427Z,62.42
2023-03-04T12:03:58.086Z,62.56
2023-03-04T12:07:08.125Z,62.50
2023-03-04T12:09:56.819Z,62.56
2023-03-04T12:13:05.284Z,62.99
2023-03-04T12:15:57.846Z,63.01
2023-03-04T12:18:54.720Z,63.27
2023-03-04T12:21:36.793Z,63.46
2023-03-04T12:24:09.401Z,63.79
2023-03-04T12:28:02.796Z,63.83
2023-03-04T12:30:58.810Z,63.77
2023-03-04T12:34:09.272Z,63.75
2023-03-04T12:36:45.298Z,64.05
2023-03-04T12:40:02.988Z,63.90
2023-03-04T12:42:39.462Z,63.98
2023-03-04T12:45:25.574Z,63.66
2023-03-04T12:48:25.398Z,63.57
2023-03-04T13:32:01.065Z,64.43
2023-03-04T13:34:50.901Z,64.66
2023-03-04T13:37:30.978Z,64.92
2023-03-04T13:40:27.519Z,64.72
2023-03-04T13:42:56.564Z,64.92
2023-03-04T13:45:35.835Z,65.03
2023-03-04T13:48:09.480Z,65.13
2023-03-04T13:50:44.547Z,65.30
2023-03-04T13:53:33.775Z,65.45
2023-03-04T13:56:10.456Z,65.85
2023-03-04T13:58:39.165Z,65.86
2023-03-04T14:01:29.114Z,65.96
2023-03-04T14:03:58.910Z,65.99
2023-03-04T14:06:31.547Z,65.93
2023-03-04T14:08:59.775Z,65.71
2023-03-04T14:11:31.615Z,65.54
2023-03-04T14:14:00.588Z,65.56
2023-03-04T14:16:31.056Z,65.69
2023-03-04T14:19:03.681Z,65.56
2023-03-04T14:21:31.950Z,65.37
2023-03-04T14:24:03.732Z,65.20
2023-03-04T14:26:33.109Z,65.13
2023-03-04T14:29:03.141Z,65.12
2023-03-04T14:31:32.063Z,65.03
2023-03-04T14:34:02.416Z,65.10
2023-03-04T14:36:35.532Z,65.00
2023-03-04T14:39:06.033Z,65.15
2023-03-04T14:41:36.812Z,65.15
2023-03-04T14:44:36.165Z,65.35
2023-03-04T14:47:20.182Z,65.39
2023-03-04T14:49:48.694Z,65.29
2023-03-04T14:52:32.960Z,65.29
2023-03-04T14:55:13.958Z,65.38
2023-03-04T14:57:43.685Z,65.34
2023-03-04T15:00:21.868Z,65.41
2023-03-04T15:02:55.651Z,65.40
2023-03-04T15:05:26.681Z,65.49
2023-03-04T15:07:59.915Z,65.50
2023-03-04T15:10:35.604Z,65.66
2023-03-04T15:13:06.305Z,65.74
2023-03-04T15:15:43.295Z,65.75
2023-03-04T15:18:28.097Z,65.82
2023-03-04T15:21:29.993Z,65.92
2023-03-04T15:23:58.335Z,65.88
2023-03-04T15:26:27.153Z,65.89
2023-03-04T15:28:55.306Z,65.94
2023-03-04T15:31:25.879Z,65.89
2023-03-04T15:33:54.939Z,66.10
2023-03-04T15:36:23.520Z,65.90
2023-03-04T15:38:53.451Z,65.96
2023-03-04T15:41:24.020Z,65.92
2023-03-04T15:43:54.766Z,65.86
2023-03-04T15:46:22.882Z,65.87
2023-03-04T15:48:50.860Z,65.89
2023-03-04T15:51:22.587Z,65.93
2023-03-04T15:53:52.455Z,65.92
2023-03-04T15:56:22.966Z,65.67
2023-03-04T15:58:58.206Z,65.83
2023-03-04T16:01:27.553Z,65.98
2023-03-04T16:03:55.789Z,65.97
2023-03-04T16:06:25.624Z,66.14
2023-03-04T16:08:54.576Z,66.02
2023-03-04T16:11:24.962Z,66.09
2023-03-04T16:13:53.282Z,66.20
2023-03-04T16:16:21.301Z,66.41
2023-03-04T16:18:49.788Z,66.37
2023-03-04T16:21:19.249Z,66.35
2023-03-04T16:23:48.390Z,66.51
2023-03-04T16:26:18.503Z,66.73
2023-03-04T16:28:47.260Z,66.78
2023-03-04T16:31:15.571Z,66.87
2023-03-04T16:33:45.080Z,67.10
2023-03-04T16:36:20.277Z,67.02
2023-03-04T16:38:48.895Z,67.00
2023-03-04T16:41:17.885Z,67.35
2023-03-04T16:43:45.813Z,67.35
2023-03-04T16:46:13.939Z,67.57
2023-03-04T16:48:42.333Z,67.72
2023-03-04T16:51:20.826Z,67.75
2023-03-04T16:53:52.104Z,67.85
2023-03-04T16:56:20.901Z,67.78
2023-03-04T16:58:49.336Z,67.80
2023-03-04T17:01:26.190Z,68.09
2023-03-04T17:03:55.227Z,68.08
2023-03-04T17:06:25.782Z,68.16
2023-03-04T17:08:54.073Z,68.23
2023-03-04T17:11:28.033Z,68.25
2023-03-04T17:13:57.974Z,68.51
2023-03-04T17:16:32.886Z,68.67
2023-03-04T17:19:04.988Z,68.67
2023-03-04T17:21:33.892Z,68.83
2023-03-04T17:24:03.624Z,68.61
2023-03-04T17:26:41.200Z,68.72
2023-03-04T17:29:10.069Z,69.07
2023-03-04T17:31:38.806Z,69.29
2023-03-04T17:34:09.364Z,69.37
2023-03-04T17:36:37.746Z,69.30
2023-03-04T17:39:06.301Z,69.09
2023-03-04T17:41:36.316Z,69.38
2023-03-04T17:44:06.120Z,69.52
2023-03-04T17:46:37.150Z,69.35
2023-03-04T17:49:06.100Z,69.47
2023-03-04T17:51:36.628Z,70.05
2023-03-04T17:54:05.834Z,70.40
2023-03-04T17:56:35.787Z,70.38
2023-03-04T17:59:08.399Z,70.86
2023-03-04T18:01:36.523Z,70.98
2023-03-04T18:04:04.909Z,70.73
2023-03-04T18:06:33.265Z,70.70
2023-03-04T18:09:05.974Z,70.88
2023-03-04T18:11:36.934Z,70.83
2023-03-04T18:14:05.152Z,71.05
2023-03-04T18:16:33.561Z,71.19
2023-03-04T18:19:03.553Z,71.17
2023-03-04T18:21:35.967Z,70.83
2023-03-04T18:24:04.625Z,70.74
2023-03-04T18:26:32.916Z,70.73
2023-03-04T18:29:02.493Z,70.64
2023-03-04T18:31:32.475Z,70.81
2023-03-04T18:34:01.818Z,71.00
2023-03-04T18:36:30.553Z,70.86
2023-03-04T18:38:59.655Z,70.47
2023-03-04T18:41:29.353Z,70.58
2023-03-04T18:43:57.514Z,70.68
2023-03-04T18:46:52.492Z,70.83
2023-03-04T18:49:21.156Z,71.10
2023-03-04T18:51:49.389Z,71.11
2023-03-04T18:54:18.512Z,70.88
2023-03-04T18:56:53.216Z,70.70
2023-03-04T18:59:26.572Z,70.80
2023-03-04T19:01:54.607Z,70.89
2023-03-04T19:04:22.685Z,70.61
2023-03-04T19:06:51.148Z,70.65
2023-03-04T19:09:19.917Z,70.66
2023-03-04T19:11:48.100Z,70.44
2023-03-04T19:14:22.296Z,70.42
2023-03-04T19:16:52.036Z,70.29
2023-03-04T19:19:20.409Z,70.27
2023-03-04T19:21:49.202Z,70.40
2023-03-04T19:24:17.454Z,70.45
2023-03-04T19:26:45.538Z,70.72
2023-03-04T19:29:14.027Z,70.55
2023-03-04T19:31:42.620Z,70.42
2023-03-04T19:34:11.189Z,70.71
2023-03-04T19:36:39.172Z,70.98
2023-03-04T19:39:08.824Z,71.14
2023-03-04T19:41:37.229Z,71.31
2023-03-04T19:44:05.297Z,71.32
2023-03-04T19:46:34.783Z,71.34
2023-03-04T19:49:04.748Z,71.58
2023-03-04T19:51:33.274Z,71.72
2023-03-04T19:54:01.906Z,71.84
2023-03-04T19:56:30.029Z,72.17
2023-03-04T19:58:58.000Z,71.99
2023-03-04T20:01:33.791Z,71.72
2023-03-04T20:04:08.197Z,71.97
2023-03-04T20:06:37.401Z,72.11
2023-03-04T20:09:05.955Z,72.16
2023-03-04T20:11:39.214Z,72.10
2023-03-04T20:14:14.841Z,71.91
2023-03-04T20:16:44.193Z,71.86
2023-03-04T20:19:12.877Z,71.87
2023-03-04T20:21:40.856Z,72.01
2023-03-04T20:24:08.889Z,71.99
2023-03-04T20:26:48.125Z,72.20
2023-03-04T20:29:16.716Z,71.96
2023-03-04T20:31:46.235Z,71.66
2023-03-04T20:34:14.640Z,71.68
2023-03-04T20:36:42.885Z,72.02
2023-03-04T20:39:27.402Z,73.58
2023-03-04T20:42:00.728Z,78.15
2023-03-04T20:44:31.783Z,81.84
2023-03-04T20:47:00.804Z,83.28
2023-03-04T20:49:29.257Z,83.96
2023-03-04T20:52:03.048Z,84.28
2023-03-04T20:54:31.528Z,84.16
2023-03-04T20:57:00.029Z,83.91
2023-03-04T20:59:28.197Z,83.63
2023-03-04T21:02:01.529Z,83.20
2023-03-04T21:04:32.530Z,82.92
2023-03-04T21:07:02.313Z,82.77
2023-03-04T21:09:31.650Z,82.31
2023-03-04T21:12:01.095Z,81.59
2023-03-04T21:14:31.802Z,80.93
2023-03-04T21:17:03.180Z,80.35
2023-03-04T21:19:34.300Z,79.73
2023-03-04T21:22:08.502Z,78.92
2023-03-04T21:24:41.246Z,78.63
2023-03-04T21:27:09.755Z,77.62
2023-03-04T21:29:39.424Z,76.09
2023-03-04T21:32:23.432Z,74.89
2023-03-04T21:34:53.274Z,74.12
2023-03-04T21:37:22.446Z,72.66
2023-03-04T21:39:52.029Z,71.68
2023-03-04T21:42:21.265Z,69.84
2023-03-04T21:44:51.440Z,69.68
2023-03-04T21:47:20.778Z,69.13
2023-03-04T21:49:48.900Z,68.67
2023-03-04T21:52:20.701Z,68.46
2023-03-04T21:54:49.132Z,68.69
2023-03-04T21:57:19.730Z,68.38
2023-03-04T21:59:48.499Z,68.47
2023-03-04T22:02:18.333Z,67.98
2023-03-04T22:04:48.063Z,67.36
2023-03-04T22:07:16.567Z,67.43
2023-03-04T22:09:47.453Z,67.26
2023-03-04T22:12:19.482Z,67.11
2023-03-04T22:14:48.159Z,67.19
2023-03-04T22:17:16.393Z,67.28
2023-03-04T22:19:45.056Z,67.51
2023-03-04T22:22:13.224Z,67.80
2023-03-04T22:24:42.464Z,67.89
2023-03-04T22:27:10.435Z,67.72
2023-03-04T22:29:41.366Z,67.61
2023-03-04T22:32:09.593Z,68.02
2023-03-04T22:34:39.109Z,68.18
2023-03-04T22:37:07.413Z,68.35
2023-03-04T22:39:35.445Z,68.35
2023-03-04T22:42:03.607Z,67.98
2023-03-04T22:44:31.671Z,68.09
2023-03-04T22:47:00.437Z,68.35
2023-03-04T22:49:28.686Z,67.90
2023-03-04T22:52:00.628Z,67.16
2023-03-04T22:54:29.753Z,67.18
2023-03-04T22:56:58.043Z,67.48
2023-03-04T22:59:26.058Z,67.14
2023-03-04T23:01:57.481Z,66.18
2023-03-04T23:04:26.518Z,65.58
2023-03-04T23:06:54.693Z,64.82
2023-03-04T23:09:23.546Z,65.00
2023-03-04T23:11:52.065Z,64.51
2023-03-04T23:14:20.720Z,64.67
2023-03-04T23:16:49.308Z,64.63
2023-03-04T23:19:17.896Z,64.65
2023-03-04T23:21:45.949Z,64.60
2023-03-04T23:24:14.078Z,64.74
2023-03-04T23:26:42.794Z,65.09
2023-03-04T23:29:12.353Z,65.34
2023-03-04T23:31:40.958Z,64.76
2023-03-04T23:34:12.797Z,64.60
2023-03-04T23:36:43.101Z,64.51
2023-03-04T23:39:11.358Z,64.31
2023-03-04T23:41:41.561Z,63.41
2023-03-04T23:44:11.039Z,63.37
2023-03-04T23:46:42.890Z,63.83
2023-03-04T23:49:12.733Z,64.17
2023-03-04T23:51:41.201Z,64.66
2023-03-04T23:54:09.681Z,65.04
2023-03-04T23:56:38.033Z,65.13
2023-03-04T23:59:10.080Z,64.59
